createdAt,value
2022-07-30T00:00:36.796Z,99920.84
2022-07-30T00:03:05.035Z,99922.44
2022-07-30T00:05:34.624Z,99921.06
2022-07-30T00:08:02.787Z,99921.91
2022-07-30T00:10:30.969Z,99926.16
2022-07-30T00:12:59.134Z,99916.28
2022-07-30T00:15:28.685Z,99917.69
2022-07-30T00:17:56.861Z,99920.94
2022-07-30T00:20:27.953Z,99923.88
2022-07-30T00:22:57.849Z,99918.78
2022-07-30T00:25:25.993Z,99917.53
2022-07-30T00:27:56.788Z,99920.06
2022-07-30T00:30:25.128Z,99913.13
2022-07-30T00:32:53.407Z,99909.59
2022-07-30T00:35:21.535Z,99908.75
2022-07-30T00:37:49.689Z,99906.16
2022-07-30T00:40:19.614Z,99906.03
2022-07-30T00:42:49.457Z,99896.69
2022-07-30T00:45:18.658Z,99905.47
2022-07-30T00:47:47.068Z,99896.97
2022-07-30T00:50:16.562Z,99902.06
2022-07-30T00:52:44.907Z,99907.44
2022-07-30T00:55:15.043Z,99915.84
2022-07-30T00:57:45.011Z,99908.31
2022-07-30T01:00:16.639Z,99907.88
2022-07-30T01:02:45.017Z,99912.44
2022-07-30T01:05:14.364Z,99908.59
2022-07-30T01:07:42.881Z,99906.91
2022-07-30T01:10:12.953Z,99909.41
2022-07-30T01:12:42.041Z,99911.16
2022-07-30T01:15:12.845Z,99911.28
2022-07-30T01:17:41.065Z,99904.34
2022-07-30T01:20:13.437Z,99911.44
2022-07-30T01:22:49.000Z,99900.34
2022-07-30T01:25:27.059Z,99898.22
2022-07-30T01:28:00.778Z,99905.28
2022-07-30T01:30:30.040Z,99906.03
2022-07-30T01:33:01.147Z,99902.47
2022-07-30T01:35:31.912Z,99901.19
2022-07-30T01:38:01.778Z,99905.75
2022-07-30T01:40:30.656Z,99909.28
2022-07-30T01:43:03.484Z,99904.16
2022-07-30T01:45:41.471Z,99900.38
2022-07-30T01:48:14.676Z,99895.13
2022-07-30T01:50:48.287Z,99895.41
2022-07-30T01:53:17.944Z,99884.63
2022-07-30T01:55:47.776Z,99882.06
2022-07-30T01:58:21.582Z,99890.00
2022-07-30T02:00:58.329Z,99876.53
2022-07-30T02:03:28.137Z,99880.50
2022-07-30T02:06:02.005Z,99873.28
2022-07-30T02:08:37.882Z,99873.56
2022-07-30T02:11:10.353Z,99870.28
2022-07-30T02:13:45.355Z,99870.16
2022-07-30T02:16:18.647Z,99868.31
2022-07-30T02:18:56.983Z,99872.56
2022-07-30T02:21:36.349Z,99862.47
2022-07-30T02:24:09.454Z,99859.47
2022-07-30T02:26:39.455Z,99856.22
2022-07-30T02:29:11.665Z,99849.25
2022-07-30T02:31:42.936Z,99841.75
2022-07-30T02:34:14.401Z,99834.81
2022-07-30T02:36:44.350Z,99835.06
2022-07-30T02:39:15.467Z,99832.53
2022-07-30T02:41:49.686Z,99830.69
2022-07-30T02:44:21.822Z,99840.84
2022-07-30T02:46:52.535Z,99840.00
2022-07-30T02:49:41.283Z,99836.47
2022-07-30T02:52:13.661Z,99836.16
2022-07-30T02:54:43.462Z,99838.19
2022-07-30T02:57:12.730Z,99836.66
2022-07-30T02:59:44.862Z,99839.75
2022-07-30T03:02:15.186Z,99839.88
2022-07-30T03:04:44.511Z,99834.78
2022-07-30T03:07:18.015Z,99834.78
2022-07-30T03:09:51.500Z,99827.56
2022-07-30T03:12:23.019Z,99834.22
2022-07-30T03:14:54.624Z,99835.22
2022-07-30T03:17:25.083Z,99825.31
2022-07-30T03:19:56.098Z,99832.69
2022-07-30T03:22:31.310Z,99829.16
2022-07-30T03:25:03.448Z,99831.00
2022-07-30T03:27:33.207Z,99835.94
2022-07-30T03:30:03.913Z,99831.16
2022-07-30T03:32:32.759Z,99830.41
2022-07-30T03:35:06.137Z,99827.47
2022-07-30T03:37:36.943Z,99825.03
2022-07-30T03:40:08.194Z,99826.63
2022-07-30T03:42:37.244Z,99831.19
2022-07-30T03:45:10.057Z,99832.03
2022-07-30T03:47:42.106Z,99835.44
2022-07-30T03:50:13.794Z,99833.28
2022-07-30T03:52:42.963Z,99837.56
2022-07-30T03:55:16.775Z,99833.56
2022-07-30T03:57:51.295Z,99827.63
2022-07-30T04:00:27.225Z,99834.16
2022-07-30T04:02:55.504Z,99835.28
2022-07-30T04:05:40.999Z,99832.19
2022-07-30T04:08:12.854Z,99832.72
2022-07-30T04:10:42.632Z,99833.03
2022-07-30T04:13:49.535Z,99831.72
2022-07-30T04:16:39.018Z,99825.78
2022-07-30T04:19:17.757Z,99831.03
2022-07-30T04:21:47.907Z,99832.44
2022-07-30T04:24:18.865Z,99831.19
2022-07-30T04:26:48.787Z,99836.84
2022-07-30T04:29:22.671Z,99840.13
2022-07-30T04:31:56.151Z,99841.38
2022-07-30T04:34:32.998Z,99837.69
2022-07-30T04:37:01.845Z,99851.16
2022-07-30T04:39:30.786Z,99849.31
2022-07-30T04:41:58.986Z,99850.44
2022-07-30T04:44:38.026Z,99847.06
2022-07-30T04:47:27.588Z,99844.34
2022-07-30T04:50:17.532Z,99839.97
2022-07-30T04:52:49.092Z,99851.31
2022-07-30T04:55:24.611Z,99849.75
2022-07-30T04:57:54.589Z,99848.75
2022-07-30T05:00:25.935Z,99856.09
2022-07-30T05:02:59.094Z,99851.84
2022-07-30T05:05:28.132Z,99848.63
2022-07-30T05:07:58.441Z,99860.88
2022-07-30T05:10:28.539Z,99855.00
2022-07-30T05:12:56.843Z,99854.84
2022-07-30T05:15:37.399Z,99856.97
2022-07-30T05:18:09.747Z,99856.41
2022-07-30T05:20:41.605Z,99863.63
2022-07-30T05:23:20.059Z,99857.94
2022-07-30T05:25:59.552Z,99862.50
2022-07-30T05:28:36.108Z,99861.38
2022-07-30T05:31:09.102Z,99866.19
2022-07-30T05:33:42.656Z,99864.31
2022-07-30T05:36:16.671Z,99860.34
2022-07-30T05:38:44.849Z,99864.16
2022-07-30T05:41:36.003Z,99862.59
2022-07-30T05:44:14.091Z,99866.72
2022-07-30T05:46:42.692Z,99869.13
2022-07-30T05:49:12.472Z,99863.47
2022-07-30T05:51:41.252Z,99873.81
2022-07-30T05:54:10.591Z,99875.66
2022-07-30T05:57:02.293Z,99883.59
2022-07-30T05:59:33.393Z,99878.78
2022-07-30T06:02:10.111Z,99875.09
2022-07-30T06:04:57.988Z,99874.09
2022-07-30T06:07:26.358Z,99865.97
2022-07-30T06:10:00.125Z,99869.81
2022-07-30T06:12:29.320Z,99871.03
2022-07-30T06:14:58.787Z,99873.47
2022-07-30T06:17:31.281Z,99879.28
2022-07-30T06:20:29.677Z,99865.03
2022-07-30T06:23:24.510Z,99879.66
2022-07-30T06:26:07.833Z,99878.50
2022-07-30T06:28:38.727Z,99884.88
2022-07-30T06:31:16.078Z,99887.97
2022-07-30T06:33:44.839Z,99885.97
2022-07-30T06:36:14.726Z,99881.72
2022-07-30T06:38:59.878Z,99885.09
2022-07-30T06:41:45.583Z,99887.91
2022-07-30T06:44:15.656Z,99891.63
2022-07-30T06:47:07.441Z,99895.31
2022-07-30T06:49:37.447Z,99886.94
2022-07-30T06:52:08.705Z,99885.47
2022-07-30T06:54:37.401Z,99884.22
2022-07-30T06:57:20.590Z,99888.41
2022-07-30T06:59:56.287Z,99883.97
2022-07-30T07:02:45.114Z,99889.25
2022-07-30T07:05:15.371Z,99890.91
2022-07-30T07:07:58.255Z,99896.09
2022-07-30T07:10:31.545Z,99880.94
2022-07-30T07:13:32.063Z,99880.72
2022-07-30T07:16:03.189Z,99871.44
2022-07-30T07:18:32.545Z,99870.59
2022-07-30T07:21:06.337Z,99866.88
2022-07-30T07:23:41.802Z,99874.66
2022-07-30T07:26:24.758Z,99863.97
2022-07-30T07:28:53.602Z,99864.97
2022-07-30T07:32:06.430Z,99869.13
2022-07-30T07:34:14.253Z,99865.59
2022-07-30T07:36:45.218Z,99862.88
2022-07-30T07:39:15.023Z,99861.06
2022-07-30T07:41:48.959Z,99858.94
2022-07-30T07:44:21.850Z,99860.56
2022-07-30T07:46:50.026Z,99858.78
2022-07-30T07:49:18.381Z,99853.13
2022-07-30T07:51:52.497Z,99867.34
2022-07-30T07:54:23.550Z,99887.25
2022-07-30T07:56:56.623Z,99908.69
2022-07-30T07:59:41.214Z,99920.19
2022-07-30T08:02:21.487Z,99927.03
2022-07-30T08:05:01.024Z,99921.56
2022-07-30T08:07:49.653Z,99916.38
2022-07-30T08:10:19.388Z,99913.22
2022-07-30T08:12:47.503Z,99898.78
2022-07-30T08:15:22.233Z,99887.03
2022-07-30T08:18:10.645Z,99888.81
2022-07-30T08:21:17.056Z,99891.53
2022-07-30T08:23:46.223Z,99901.97
2022-07-30T08:26:15.994Z,99915.94
2022-07-30T08:28:45.810Z,99921.00
2022-07-30T08:31:14.726Z,99925.72
2022-07-30T08:33:42.933Z,99919.53
2022-07-30T08:36:12.497Z,99923.22
2022-07-30T08:38:40.708Z,99936.41
2022-07-30T08:41:10.441Z,99930.09
2022-07-30T08:43:41.530Z,99934.63
2022-07-30T08:46:11.343Z,99929.03
2022-07-30T08:48:57.317Z,99928.06
2022-07-30T08:51:26.149Z,99921.81
2022-07-30T08:54:13.019Z,99913.41
2022-07-30T08:56:42.868Z,99917.16
2022-07-30T08:59:12.593Z,99924.88
2022-07-30T09:01:40.740Z,99929.63
2022-07-30T09:04:08.924Z,99921.09
2022-07-30T09:06:38.236Z,99918.69
2022-07-30T09:09:07.364Z,99920.34
2022-07-30T09:11:36.465Z,99918.25
2022-07-30T09:14:13.650Z,99916.28
2022-07-30T09:16:43.215Z,99912.44
2022-07-30T09:19:17.916Z,99924.84
2022-07-30T09:21:57.423Z,99919.41
2022-07-30T09:24:43.974Z,99919.56
2022-07-30T09:27:45.312Z,99917.47
2022-07-30T09:30:47.363Z,99912.28
2022-07-30T09:33:36.753Z,99927.97
2022-07-30T09:36:32.983Z,99916.66
2022-07-30T09:39:34.916Z,99925.13
2022-07-30T09:42:23.535Z,99927.25
2022-07-30T09:44:53.688Z,99939.47
2022-07-30T09:47:33.841Z,99951.72
2022-07-30T09:50:07.972Z,99971.75
2022-07-30T09:52:36.981Z,99984.63
2022-07-30T09:55:14.361Z,99984.75
2022-07-30T09:57:58.877Z,99996.91
2022-07-30T10:00:29.100Z,99989.81
2022-07-30T10:03:21.956Z,99959.81
2022-07-30T10:06:33.964Z,99940.00
2022-07-30T10:09:13.691Z,99924.66
2022-07-30T10:11:48.602Z,99903.94
2022-07-30T10:14:18.278Z,99913.19
2022-07-30T10:17:00.207Z,99917.34
2022-07-30T10:19:40.228Z,99932.19
2022-07-30T10:22:29.424Z,99938.56
2022-07-30T10:25:36.392Z,99944.41
2022-07-30T10:28:24.167Z,99941.63
2022-07-30T10:30:53.115Z,99946.16
2022-07-30T10:33:36.418Z,99950.53
2022-07-30T10:36:12.142Z,99964.97
2022-07-30T10:38:46.013Z,99968.97
2022-07-30T10:41:44.363Z,99971.66
2022-07-30T10:44:46.814Z,99962.53
2022-07-30T10:47:18.654Z,99959.00
2022-07-30T10:50:11.652Z,99959.22
2022-07-30T10:52:52.765Z,99948.47
2022-07-30T10:55:37.003Z,99938.09
2022-07-30T10:58:08.711Z,99925.84
2022-07-30T11:00:58.550Z,99919.75
2022-07-30T11:03:41.568Z,99913.53
2022-07-30T11:06:26.950Z,99901.84
2022-07-30T11:08:57.121Z,99896.88
2022-07-30T11:12:01.401Z,99904.66
2022-07-30T11:14:58.450Z,99894.13
2022-07-30T11:18:00.221Z,99874.91
2022-07-30T11:20:30.344Z,99874.50
2022-07-30T11:23:14.245Z,99873.66
2022-07-30T11:25:51.084Z,99859.38
2022-07-30T11:28:45.986Z,99858.31
2022-07-30T11:31:55.609Z,99869.28
2022-07-30T11:34:30.763Z,99867.22
2022-07-30T11:37:21.963Z,99873.00
2022-07-30T11:40:12.221Z,99878.25
2022-07-30T11:42:43.690Z,99880.31
2022-07-30T11:45:29.657Z,99870.78
2022-07-30T11:48:01.456Z,99870.47
2022-07-30T11:50:32.488Z,99862.38
2022-07-30T11:53:04.124Z,99865.25
2022-07-30T11:55:34.089Z,99861.22
2022-07-30T11:58:04.279Z,99845.06
2022-07-30T12:00:38.490Z,99852.56
2022-07-30T12:03:14.691Z,99847.41
2022-07-30T12:05:44.034Z,99845.53
2022-07-30T12:08:35.246Z,99830.75
2022-07-30T12:11:03.208Z,99826.13
2022-07-30T12:13:45.346Z,99805.75
2022-07-30T12:16:17.645Z,99810.03
2022-07-30T12:18:46.643Z,99802.25
2022-07-30T12:21:16.871Z,99793.13
2022-07-30T12:23:55.281Z,99794.63
2022-07-30T12:26:26.766Z,99793.66
2022-07-30T12:28:56.527Z,99808.88
2022-07-30T12:31:24.953Z,99806.31
2022-07-30T12:33:53.307Z,99808.41
2022-07-30T12:36:32.618Z,99805.31
2022-07-30T12:39:03.937Z,99811.09
2022-07-30T12:41:45.822Z,99805.88
2022-07-30T12:44:35.860Z,99797.19
2022-07-30T12:47:05.446Z,99792.09
2022-07-30T12:49:37.624Z,99790.13
2022-07-30T12:52:28.829Z,99797.72
2022-07-30T12:55:10.367Z,99798.88
2022-07-30T12:57:57.438Z,99812.81
2022-07-30T13:00:27.104Z,99811.81
2022-07-30T13:02:55.862Z,99806.50
2022-07-30T13:05:45.355Z,99806.53
2022-07-30T13:08:13.543Z,99820.75
2022-07-30T13:10:58.263Z,99818.81
2022-07-30T13:13:28.058Z,99822.88
2022-07-30T13:16:01.329Z,99813.44
2022-07-30T13:18:30.293Z,99823.47
2022-07-30T13:20:58.576Z,99820.84
2022-07-30T13:23:27.595Z,99810.97
2022-07-30T13:25:57.855Z,99803.88
2022-07-30T13:28:26.118Z,99792.38
2022-07-30T13:30:54.323Z,99785.13
2022-07-30T13:33:22.461Z,99787.63
2022-07-30T13:35:50.643Z,99786.75
2022-07-30T13:38:18.757Z,99789.91
2022-07-30T13:40:47.104Z,99793.25
2022-07-30T13:43:16.766Z,99792.00
2022-07-30T13:45:44.903Z,99789.13
2022-07-30T13:48:13.086Z,99785.41
2022-07-30T13:50:41.425Z,99790.63
2022-07-30T13:53:10.200Z,99796.84
2022-07-30T13:55:38.796Z,99802.81
2022-07-30T13:58:08.578Z,99808.41
2022-07-30T14:00:38.905Z,99816.38
2022-07-30T14:03:09.004Z,99813.34
2022-07-30T14:05:42.042Z,99812.13
2022-07-30T14:08:11.976Z,99822.97
2022-07-30T14:10:41.011Z,99821.53
2022-07-30T14:13:10.402Z,99822.22
2022-07-30T14:15:45.455Z,99824.34
2022-07-30T14:18:13.596Z,99827.22
2022-07-30T14:20:45.546Z,99826.91
2022-07-30T14:23:16.454Z,99830.84
2022-07-30T14:25:44.749Z,99831.69
2022-07-30T14:28:14.002Z,99830.00
2022-07-30T14:30:42.209Z,99829.13
2022-07-30T14:33:12.140Z,99837.34
2022-07-30T14:35:40.374Z,99833.75
2022-07-30T14:38:08.610Z,99836.66
2022-07-30T14:40:36.762Z,99838.72
2022-07-30T14:43:06.545Z,99835.47
2022-07-30T14:45:36.525Z,99832.78
2022-07-30T14:48:05.054Z,99838.53
2022-07-30T14:50:46.594Z,99827.31
2022-07-30T14:53:22.750Z,99813.00
2022-07-30T14:55:50.930Z,99819.81
2022-07-30T14:58:19.172Z,99826.19
2022-07-30T15:00:48.394Z,99820.22
2022-07-30T15:03:17.169Z,99820.66
2022-07-30T15:05:50.300Z,99823.16
2022-07-30T15:08:20.689Z,99830.22
2022-07-30T15:10:49.253Z,99822.13
2022-07-30T15:13:18.115Z,99826.31
2022-07-30T15:15:47.781Z,99828.00
2022-07-30T15:18:16.044Z,99827.34
2022-07-30T15:20:44.196Z,99821.81
2022-07-30T15:23:14.402Z,99823.44
2022-07-30T15:25:43.081Z,99817.72
2022-07-30T15:28:11.197Z,99821.00
2022-07-30T15:30:39.356Z,99834.41
2022-07-30T15:33:07.612Z,99827.81
2022-07-30T15:35:36.780Z,99826.44
2022-07-30T15:38:05.348Z,99831.34
2022-07-30T15:40:34.956Z,99824.47
2022-07-30T15:43:06.815Z,99840.53
2022-07-30T15:45:52.317Z,99852.91
2022-07-30T15:48:27.408Z,99847.78
2022-07-30T15:51:02.732Z,99846.81
2022-07-30T15:53:31.355Z,99850.72
2022-07-30T15:56:01.623Z,99852.81
2022-07-30T15:58:29.758Z,99858.63
2022-07-30T16:00:58.051Z,99869.31
2022-07-30T16:03:26.192Z,99865.03
2022-07-30T16:05:54.431Z,99863.69
2022-07-30T16:08:22.638Z,99867.84
2022-07-30T16:10:51.994Z,99875.94
2022-07-30T16:13:21.612Z,99874.19
2022-07-30T16:15:49.893Z,99870.78
2022-07-30T16:18:18.102Z,99871.25
2022-07-30T16:20:46.311Z,99868.91
2022-07-30T16:23:19.444Z,99868.53
2022-07-30T16:25:49.385Z,99867.06
2022-07-30T16:28:17.857Z,99873.22
2022-07-30T16:30:50.740Z,99879.63
2022-07-30T16:33:20.848Z,99883.19
2022-07-30T16:35:50.955Z,99880.16
2022-07-30T16:38:19.477Z,99885.13
2022-07-30T16:40:47.856Z,99874.88
2022-07-30T16:43:20.198Z,99873.41
2022-07-30T16:45:49.982Z,99885.09
2022-07-30T16:48:18.332Z,99881.88
2022-07-30T16:50:46.841Z,99872.38
2022-07-30T16:53:15.039Z,99872.69
2022-07-30T16:55:45.981Z,99886.06
2022-07-30T16:58:14.139Z,99879.66
2022-07-30T17:00:42.545Z,99881.63
2022-07-30T17:03:20.210Z,99887.97
2022-07-30T17:05:48.868Z,99890.06
2022-07-30T17:08:17.735Z,99883.53
2022-07-30T17:10:46.495Z,99889.56
2022-07-30T17:13:16.247Z,99894.13
2022-07-30T17:15:45.592Z,99903.34
2022-07-30T17:18:17.163Z,99902.03
2022-07-30T17:20:45.358Z,99893.09
2022-07-30T17:23:13.655Z,99894.28
2022-07-30T17:25:41.807Z,99883.75
2022-07-30T17:28:09.915Z,99892.00
2022-07-30T17:30:38.139Z,99881.50
2022-07-30T17:33:06.465Z,99879.25
2022-07-30T17:35:36.004Z,99874.44
2022-07-30T17:38:04.326Z,99872.28
2022-07-30T17:40:34.569Z,99866.25
2022-07-30T17:43:04.900Z,99868.41
2022-07-30T17:45:34.445Z,99867.28
2022-07-30T17:48:02.745Z,99864.00
2022-07-30T17:50:32.268Z,99861.59
2022-07-30T17:53:03.657Z,99846.72
2022-07-30T17:55:32.108Z,99842.31
2022-07-30T17:58:00.198Z,99839.63
2022-07-30T18:00:28.412Z,99844.06
2022-07-30T18:02:56.604Z,99850.16
2022-07-30T18:05:24.742Z,99842.91
2022-07-30T18:07:53.112Z,99846.16
2022-07-30T18:10:22.780Z,99846.16
2022-07-30T18:12:50.878Z,99841.47
2022-07-30T18:15:20.319Z,99846.31
2022-07-30T18:17:48.574Z,99846.16
2022-07-30T18:20:17.132Z,99853.00
2022-07-30T18:22:45.464Z,99857.53
2022-07-30T18:25:19.094Z,99841.06
2022-07-30T18:27:49.038Z,99852.00
2022-07-30T18:30:17.354Z,99857.38
2022-07-30T18:32:45.955Z,99856.53
2022-07-30T18:35:15.389Z,99858.25
2022-07-30T18:37:44.717Z,99862.06
2022-07-30T18:40:14.531Z,99865.91
2022-07-30T18:42:43.159Z,99861.94
2022-07-30T18:45:14.123Z,99864.31
2022-07-30T18:47:42.600Z,99876.41
2022-07-30T18:50:11.670Z,99881.94
2022-07-30T18:52:40.044Z,99880.50
2022-07-30T18:55:11.324Z,99883.63
2022-07-30T18:57:39.632Z,99884.75
2022-07-30T19:00:35.666Z,99881.50
2022-07-30T19:03:01.206Z,99881.50
2022-07-30T19:05:29.720Z,99891.00
2022-07-30T19:07:58.793Z,99902.47
2022-07-30T19:10:28.077Z,99904.56
2022-07-30T19:12:57.094Z,99910.09
2022-07-30T19:15:25.689Z,99911.69
2022-07-30T19:17:54.120Z,99918.03
2022-07-30T19:20:24.501Z,99914.75
2022-07-30T19:22:53.337Z,99918.56
2022-07-30T19:25:21.631Z,99914.03
2022-07-30T19:27:49.804Z,99920.03
2022-07-30T19:30:18.050Z,99932.75
2022-07-30T19:32:46.150Z,99929.03
2022-07-30T19:35:14.565Z,99933.00
2022-07-30T19:37:44.281Z,99928.75
2022-07-30T19:40:13.801Z,99928.59
2022-07-30T19:42:42.544Z,99926.59
2022-07-30T19:45:13.055Z,99923.47
2022-07-30T19:50:29.765Z,99920.06
2022-07-30T19:52:59.483Z,99918.91
2022-07-30T19:55:35.019Z,99931.22
2022-07-30T19:58:16.060Z,99927.06
2022-07-30T20:00:49.576Z,99926.69
2022-07-30T20:03:25.477Z,99929.38
2022-07-30T20:05:58.622Z,99923.13
2022-07-30T20:08:29.596Z,99932.91
2022-07-30T20:10:59.304Z,99932.44
2022-07-30T20:13:44.040Z,99929.66
2022-07-30T20:16:15.667Z,99930.88
2022-07-30T20:18:46.029Z,99931.22
2022-07-30T20:21:15.827Z,99927.91
2022-07-30T20:23:46.526Z,99929.66
2022-07-30T20:26:16.048Z,99927.06
2022-07-30T20:28:52.559Z,99937.47
2022-07-30T20:31:21.334Z,99932.38
2022-07-30T20:33:50.787Z,99926.13
2022-07-30T20:36:19.704Z,99919.97
2022-07-30T20:38:49.457Z,99920.94
2022-07-30T20:41:17.858Z,99916.84
2022-07-30T20:43:52.409Z,99918.41
2022-07-30T20:46:23.802Z,99910.28
2022-07-30T20:48:52.797Z,99912.91
2022-07-30T20:51:21.627Z,99914.28
2022-07-30T20:54:03.244Z,99914.34
2022-07-30T20:56:31.510Z,99912.50
2022-07-30T20:58:59.661Z,99912.38
2022-07-30T21:01:30.768Z,99911.66
2022-07-30T21:03:59.138Z,99919.16
2022-07-30T21:06:27.401Z,99907.53
2022-07-30T21:08:56.799Z,99908.63
2022-07-30T21:11:26.940Z,99908.75
2022-07-30T21:13:55.147Z,99904.91
2022-07-30T21:16:23.752Z,99912.03
2022-07-30T21:18:51.884Z,99906.09
2022-07-30T21:21:30.461Z,99900.94
2022-07-30T21:24:12.225Z,99899.50
2022-07-30T21:26:42.866Z,99898.66
2022-07-30T21:29:11.733Z,99901.22
2022-07-30T21:32:01.374Z,99910.97
2022-07-30T21:34:30.842Z,99914.16
2022-07-30T21:37:03.541Z,99915.91
2022-07-30T21:39:31.741Z,99911.25
2022-07-30T21:42:10.266Z,99912.94
2022-07-30T21:44:38.823Z,99912.22
2022-07-30T21:47:10.122Z,99910.84
2022-07-30T21:49:39.273Z,99911.38
2022-07-30T21:52:08.512Z,99914.34
2022-07-30T21:54:48.043Z,99914.47
2022-07-30T21:57:26.142Z,99909.31
2022-07-30T21:59:55.487Z,99908.47
2022-07-30T22:02:23.984Z,99899.88
2022-07-30T22:04:52.375Z,99900.13
2022-07-30T22:07:21.899Z,99898.28
2022-07-30T22:09:50.425Z,99907.47
2022-07-30T22:12:20.171Z,99903.44
2022-07-30T22:14:49.520Z,99894.19
2022-07-30T22:17:23.483Z,99890.13
2022-07-30T22:20:08.729Z,99889.19
2022-07-30T22:22:39.927Z,99892.97
2022-07-30T22:25:09.772Z,99892.13
2022-07-30T22:27:56.012Z,99895.66
2022-07-30T22:30:26.792Z,99886.41
2022-07-30T22:32:55.669Z,99878.38
2022-07-30T22:35:32.403Z,99883.59
2022-07-30T22:38:02.983Z,99878.00
2022-07-30T22:40:31.468Z,99877.88
2022-07-30T22:43:04.211Z,99875.06
2022-07-30T22:45:48.573Z,99872.53
2022-07-30T22:48:17.350Z,99865.31
2022-07-30T22:50:48.516Z,99867.63
2022-07-30T22:54:10.639Z,99871.03
2022-07-30T22:56:14.171Z,99872.75
2022-07-30T22:58:45.394Z,99871.78
2022-07-30T23:01:16.950Z,99862.41
2022-07-30T23:03:45.148Z,99869.59
2022-07-30T23:06:16.536Z,99862.66
2022-07-30T23:08:44.658Z,99861.69
2022-07-30T23:11:12.779Z,99865.34
2022-07-30T23:12:15.038Z,99921.63
2022-07-30T23:13:40.896Z,99865.34
2022-07-30T23:16:10.623Z,99865.09
2022-07-30T23:18:38.790Z,99857.78
2022-07-30T23:21:06.878Z,99857.91
2022-07-30T23:23:35.865Z,99857.19
2022-07-30T23:26:04.955Z,99865.09
2022-07-30T23:28:33.198Z,99862.53
2022-07-30T23:31:01.473Z,99862.28
2022-07-30T23:33:31.768Z,99864.97
2022-07-30T23:36:00.403Z,99859.59
2022-07-30T23:38:28.881Z,99846.19
2022-07-30T23:41:01.219Z,99849.00
2022-07-30T23:43:29.426Z,99850.50
2022-07-30T23:45:57.512Z,99847.81
2022-07-30T23:48:25.664Z,99851.69
2022-07-30T23:50:55.256Z,99852.66
2022-07-30T23:53:23.360Z,99841.31
2022-07-30T23:55:52.120Z,99841.81
2022-07-30T23:58:20.452Z,99846.22
